createdAt,value
2018-07-26T00:00:31.920Z,71.64
2018-07-26T00:01:31.964Z,71.73
2018-07-26T00:02:31.995Z,71.06
2018-07-26T00:03:32.008Z,70.37
2018-07-26T00:04:32.040Z,70.67
2018-07-26T00:05:32.055Z,71.15
2018-07-26T00:06:32.114Z,70.96
2018-07-26T00:07:32.119Z,70.47
2018-07-26T00:08:32.150Z,70.57
2018-07-26T00:09:32.206Z,70.86
2018-07-26T00:10:32.209Z,70.57
2018-07-26T00:11:32.234Z,70.28
2018-07-26T00:12:32.269Z,70.96
2018-07-26T00:13:32.300Z,70.37
2018-07-26T00:14:32.328Z,70.76
2018-07-26T00:15:32.358Z,71.44
2018-07-26T00:16:32.391Z,71.25
2018-07-26T00:17:32.417Z,71.34
2018-07-26T00:18:32.445Z,71.44
2018-07-26T00:19:32.486Z,71.44
2018-07-26T00:20:32.516Z,72.51
2018-07-26T00:21:32.575Z,72.12
2018-07-26T00:22:32.567Z,71.83
2018-07-26T00:23:32.607Z,72.61
2018-07-26T00:24:32.628Z,72.77
2018-07-26T00:25:32.655Z,71.93
2018-07-26T00:26:32.695Z,72.61
2018-07-26T00:27:32.764Z,72.28
2018-07-26T00:28:32.744Z,72.77
2018-07-26T00:29:32.775Z,72.86
2018-07-26T00:30:32.802Z,72.96
2018-07-26T00:31:32.833Z,74.70
2018-07-26T00:32:32.864Z,74.12
2018-07-26T00:33:32.896Z,74.18
2018-07-26T00:34:32.924Z,73.93
2018-07-26T00:35:32.947Z,73.48
2018-07-26T00:36:32.980Z,74.70
2018-07-26T00:37:33.017Z,74.02
2018-07-26T00:38:33.138Z,73.73
2018-07-26T00:39:33.073Z,73.73
2018-07-26T00:40:33.100Z,73.79
2018-07-26T00:41:33.129Z,74.96
2018-07-26T00:42:33.161Z,74.86
2018-07-26T00:43:33.196Z,73.83
2018-07-26T00:44:33.223Z,73.11
2018-07-26T00:45:33.242Z,73.79
2018-07-26T00:46:33.281Z,75.24
2018-07-26T00:47:33.309Z,74.66
2018-07-26T00:48:33.342Z,74.47
2018-07-26T00:49:33.366Z,74.18
2018-07-26T00:50:33.401Z,74.76
2018-07-26T00:51:33.426Z,74.38
2018-07-26T00:52:33.460Z,73.89
2018-07-26T00:53:33.495Z,74.02
2018-07-26T00:54:33.516Z,74.41
2018-07-26T00:55:33.547Z,73.93
2018-07-26T00:56:33.580Z,74.57
2018-07-26T00:57:33.604Z,74.32
2018-07-26T00:58:33.630Z,74.86
2018-07-26T00:59:33.668Z,75.63
2018-07-26T01:00:33.695Z,74.96
2018-07-26T01:01:33.722Z,74.76
2018-07-26T01:02:33.762Z,75.63
2018-07-26T01:03:33.785Z,75.63
2018-07-26T01:04:33.805Z,75.44
2018-07-26T01:05:33.852Z,75.70
2018-07-26T01:06:33.861Z,77.82
2018-07-26T01:07:33.907Z,76.86
2018-07-26T01:08:33.932Z,77.05
2018-07-26T01:09:33.962Z,77.53
2018-07-26T01:10:33.985Z,76.70
2018-07-26T01:11:34.016Z,77.28
2018-07-26T01:12:34.053Z,76.41
2018-07-26T01:13:34.080Z,76.02
2018-07-26T01:14:34.105Z,76.60
2018-07-26T01:15:34.134Z,76.41
2018-07-26T01:16:34.166Z,76.70
2018-07-26T01:17:34.201Z,75.92
2018-07-26T01:18:34.220Z,76.02
2018-07-26T01:19:34.250Z,75.44
2018-07-26T01:20:34.285Z,75.73
2018-07-26T01:21:34.313Z,75.54
2018-07-26T01:22:34.335Z,75.24
2018-07-26T01:23:34.371Z,74.76
2018-07-26T01:24:34.397Z,74.66
2018-07-26T01:25:34.423Z,75.54
2018-07-26T01:26:34.460Z,75.31
2018-07-26T01:27:34.489Z,76.46
2018-07-26T01:28:34.514Z,75.70
2018-07-26T01:29:34.538Z,75.79
2018-07-26T01:30:34.583Z,75.70
2018-07-26T01:31:34.618Z,75.31
2018-07-26T01:32:34.633Z,76.28
2018-07-26T01:33:34.660Z,75.50
2018-07-26T01:34:34.691Z,75.50
2018-07-26T01:35:34.727Z,75.70
2018-07-26T01:36:34.748Z,76.18
2018-07-26T01:37:34.778Z,75.70
2018-07-26T01:38:34.806Z,75.60
2018-07-26T01:39:34.830Z,75.44
2018-07-26T01:40:34.872Z,75.40
2018-07-26T01:41:34.895Z,75.21
2018-07-26T01:42:34.916Z,75.50
2018-07-26T01:43:34.953Z,75.24
2018-07-26T01:44:34.985Z,75.21
2018-07-26T01:45:35.012Z,74.96
2018-07-26T01:46:35.040Z,74.86
2018-07-26T01:47:35.068Z,75.50
2018-07-26T01:48:35.135Z,75.73
2018-07-26T01:49:35.122Z,75.98
2018-07-26T01:50:35.162Z,75.98
2018-07-26T01:51:35.181Z,75.79
2018-07-26T01:52:35.217Z,76.18
2018-07-26T01:53:35.237Z,76.46
2018-07-26T01:54:35.274Z,75.79
2018-07-26T01:55:35.301Z,76.28
2018-07-26T01:56:35.327Z,76.53
2018-07-26T01:57:35.356Z,76.37
2018-07-26T01:58:35.394Z,76.56
2018-07-26T01:59:35.416Z,75.70
2018-07-26T02:00:35.449Z,76.18
2018-07-26T02:01:35.487Z,76.76
2018-07-26T02:02:35.503Z,76.37
2018-07-26T02:03:35.532Z,75.79
2018-07-26T02:04:35.566Z,77.11
2018-07-26T02:05:35.591Z,76.56
2018-07-26T02:06:35.618Z,76.66
2018-07-26T02:07:35.659Z,77.78
2018-07-26T02:08:35.685Z,78.46
2018-07-26T02:09:35.722Z,78.17
2018-07-26T02:10:35.736Z,77.01
2018-07-26T02:11:35.769Z,76.53
2018-07-26T02:12:35.809Z,76.56
2018-07-26T02:13:35.822Z,76.43
2018-07-26T02:14:35.858Z,76.33
2018-07-26T02:15:35.874Z,76.62
2018-07-26T02:16:35.914Z,76.43
2018-07-26T02:17:35.942Z,77.01
2018-07-26T02:18:35.970Z,76.33
2018-07-26T02:19:36.003Z,76.43
2018-07-26T02:20:36.019Z,76.49
2018-07-26T02:21:36.058Z,76.43
2018-07-26T02:22:36.086Z,76.43
2018-07-26T02:23:36.113Z,78.33
2018-07-26T02:24:36.154Z,79.49
2018-07-26T02:25:36.167Z,79.20
2018-07-26T02:26:36.202Z,78.91
2018-07-26T02:27:36.229Z,78.81
2018-07-26T02:28:36.258Z,79.20
2018-07-26T02:29:36.285Z,78.42
2018-07-26T02:30:36.319Z,78.03
2018-07-26T02:31:36.342Z,78.33
2018-07-26T02:32:36.367Z,78.03
2018-07-26T02:33:36.403Z,78.29
2018-07-26T02:34:36.426Z,79.20
2018-07-26T02:35:36.458Z,79.00
2018-07-26T02:36:36.496Z,79.58
2018-07-26T02:37:36.516Z,78.81
2018-07-26T02:38:36.549Z,78.71
2018-07-26T02:39:36.571Z,79.20
2018-07-26T02:40:36.607Z,78.61
2018-07-26T02:41:36.634Z,78.61
2018-07-26T02:42:36.656Z,79.20
2018-07-26T02:43:36.692Z,79.00
2018-07-26T02:44:36.717Z,79.20
2018-07-26T02:45:36.773Z,78.42
2018-07-26T02:46:36.780Z,77.07
2018-07-26T02:47:36.815Z,76.39
2018-07-26T02:48:36.824Z,76.20
2018-07-26T02:49:36.864Z,75.23
2018-07-26T02:50:36.891Z,75.91
2018-07-26T02:51:36.935Z,75.17
2018-07-26T02:52:36.947Z,76.20
2018-07-26T02:53:36.974Z,76.59
2018-07-26T02:54:37.005Z,76.10
2018-07-26T02:55:37.041Z,75.91
2018-07-26T02:56:37.066Z,75.71
2018-07-26T02:57:37.093Z,76.29
2018-07-26T02:58:37.120Z,76.49
2018-07-26T02:59:37.152Z,76.49
2018-07-26T03:00:37.169Z,78.13
2018-07-26T03:01:37.207Z,77.84
2018-07-26T03:02:37.232Z,77.26
2018-07-26T03:03:37.261Z,77.75
2018-07-26T03:04:37.290Z,77.26
2018-07-26T03:05:37.327Z,77.36
2018-07-26T03:06:37.356Z,77.45
2018-07-26T03:07:37.378Z,77.45
2018-07-26T03:08:37.407Z,77.07
2018-07-26T03:09:37.437Z,76.59
2018-07-26T03:10:37.465Z,76.97
2018-07-26T03:11:37.491Z,77.07
2018-07-26T03:12:37.526Z,77.07
2018-07-26T03:13:37.548Z,77.17
2018-07-26T03:14:37.574Z,76.10
2018-07-26T03:15:37.608Z,75.91
2018-07-26T03:16:37.635Z,76.45
2018-07-26T03:17:37.666Z,76.84
2018-07-26T03:18:37.691Z,77.61
2018-07-26T03:20:37.754Z,75.62
2018-07-26T03:21:37.779Z,76.84
2018-07-26T03:22:37.808Z,78.00
2018-07-26T03:23:37.833Z,77.22
2018-07-26T03:24:37.862Z,76.49
2018-07-26T03:25:37.888Z,76.29
2018-07-26T03:26:37.935Z,77.36
2018-07-26T03:27:37.947Z,76.97
2018-07-26T03:28:37.972Z,76.78
2018-07-26T03:29:38.006Z,77.75
2018-07-26T03:30:38.031Z,77.80
2018-07-26T03:31:38.069Z,77.90
2018-07-26T03:32:38.088Z,77.80
2018-07-26T03:33:38.120Z,78.19
2018-07-26T03:34:38.146Z,77.90
2018-07-26T03:35:38.177Z,78.58
2018-07-26T03:36:38.203Z,78.09
2018-07-26T03:37:38.232Z,78.25
2018-07-26T03:38:38.263Z,78.15
2018-07-26T03:39:38.286Z,78.54
2018-07-26T03:40:38.325Z,78.09
2018-07-26T03:41:38.344Z,77.51
2018-07-26T03:42:38.373Z,78.15
2018-07-26T03:43:38.441Z,78.15
2018-07-26T03:44:38.462Z,77.86
2018-07-26T03:45:38.455Z,77.96
2018-07-26T03:46:38.485Z,78.15
2018-07-26T03:47:38.514Z,78.34
2018-07-26T03:48:38.542Z,77.42
2018-07-26T03:49:38.580Z,76.84
2018-07-26T03:50:38.595Z,78.25
2018-07-26T03:51:38.641Z,77.96
2018-07-26T03:52:38.705Z,77.90
2018-07-26T03:53:38.701Z,78.83
2018-07-26T03:54:38.723Z,79.12
2018-07-26T03:55:38.739Z,80.18
2018-07-26T03:56:38.766Z,80.08
2018-07-26T03:57:38.799Z,79.93
2018-07-26T03:58:38.829Z,79.70
2018-07-26T03:59:38.854Z,78.87
2018-07-26T04:00:38.887Z,79.06
2018-07-26T04:01:38.916Z,78.67
2018-07-26T04:02:38.938Z,78.48
2018-07-26T04:03:38.960Z,78.96
2018-07-26T04:04:38.991Z,78.48
2018-07-26T04:05:39.025Z,78.87
2018-07-26T04:06:39.058Z,79.06
2018-07-26T04:07:39.083Z,78.38
2018-07-26T04:08:39.114Z,79.41
2018-07-26T04:09:39.142Z,79.45
2018-07-26T04:10:39.161Z,79.22
2018-07-26T04:11:39.191Z,79.41
2018-07-26T04:12:39.216Z,79.41
2018-07-26T04:13:39.262Z,79.02
2018-07-26T04:14:39.275Z,79.02
2018-07-26T04:15:39.310Z,79.41
2018-07-26T04:16:39.333Z,79.12
2018-07-26T04:17:39.359Z,78.44
2018-07-26T04:18:39.387Z,78.77
2018-07-26T04:19:39.414Z,79.02
2018-07-26T04:20:39.448Z,78.92
2018-07-26T04:21:39.476Z,79.02
2018-07-26T04:22:39.511Z,79.80
2018-07-26T04:23:39.522Z,78.83
2018-07-26T04:24:39.556Z,79.08
2018-07-26T04:25:39.591Z,79.31
2018-07-26T04:26:39.610Z,78.64
2018-07-26T04:27:39.644Z,78.25
2018-07-26T04:28:39.671Z,78.00
2018-07-26T04:29:39.698Z,77.71
2018-07-26T04:30:39.730Z,77.71
2018-07-26T04:32:39.781Z,76.93
2018-07-26T04:33:39.807Z,76.84
2018-07-26T04:34:39.842Z,77.32
2018-07-26T04:35:39.866Z,76.35
2018-07-26T04:36:39.902Z,76.45
2018-07-26T04:37:39.915Z,77.19
2018-07-26T04:38:39.947Z,77.13
2018-07-26T04:39:39.992Z,76.90
2018-07-26T04:40:40.007Z,76.45
2018-07-26T04:41:40.037Z,76.26
2018-07-26T04:42:40.056Z,76.35
2018-07-26T04:43:40.092Z,76.45
2018-07-26T04:44:40.119Z,76.35
2018-07-26T04:45:40.147Z,76.26
2018-07-26T04:46:40.180Z,76.35
2018-07-26T04:47:40.211Z,76.32
2018-07-26T04:48:40.237Z,76.22
2018-07-26T04:49:40.269Z,76.42
2018-07-26T04:50:40.279Z,76.51
2018-07-26T04:51:40.328Z,76.22
2018-07-26T04:52:40.365Z,75.74
2018-07-26T04:53:40.366Z,75.74
2018-07-26T04:54:40.439Z,76.51
2018-07-26T04:55:40.425Z,76.32
2018-07-26T04:56:40.453Z,76.51
2018-07-26T04:57:40.498Z,76.32
2018-07-26T04:58:40.520Z,76.22
2018-07-26T04:59:40.572Z,75.93
2018-07-26T05:00:40.562Z,76.32
2018-07-26T05:01:40.592Z,76.03
2018-07-26T05:02:40.625Z,75.84
2018-07-26T05:03:40.652Z,76.22
2018-07-26T05:04:40.681Z,76.42
2018-07-26T05:05:40.708Z,76.32
2018-07-26T05:06:40.734Z,76.22
2018-07-26T05:07:40.773Z,76.51
2018-07-26T05:08:40.796Z,76.32
2018-07-26T05:09:40.819Z,76.32
2018-07-26T05:10:40.848Z,76.22
2018-07-26T05:11:40.879Z,75.87
2018-07-26T05:12:40.910Z,75.29
2018-07-26T05:13:40.943Z,75.58
2018-07-26T05:14:40.954Z,75.10
2018-07-26T05:15:40.989Z,75.29
2018-07-26T05:16:41.018Z,75.26
2018-07-26T05:17:41.051Z,75.20
2018-07-26T05:18:41.073Z,75.10
2018-07-26T05:19:41.098Z,75.06
2018-07-26T05:20:41.146Z,75.68
2018-07-26T05:21:41.164Z,74.90
2018-07-26T05:22:41.183Z,74.90
2018-07-26T05:23:41.214Z,74.13
2018-07-26T05:24:41.243Z,74.42
2018-07-26T05:25:41.266Z,74.62
2018-07-26T05:26:41.295Z,75.10
2018-07-26T05:27:41.340Z,75.29
2018-07-26T05:28:41.351Z,75.20
2018-07-26T05:29:41.380Z,75.39
2018-07-26T05:30:41.406Z,75.00
2018-07-26T05:31:41.435Z,74.90
2018-07-26T05:32:41.464Z,75.10
2018-07-26T05:33:41.501Z,75.58
2018-07-26T05:34:41.523Z,75.20
2018-07-26T05:35:41.557Z,74.71
2018-07-26T05:36:41.587Z,75.04
2018-07-26T05:37:41.654Z,74.65
2018-07-26T05:38:41.640Z,74.27
2018-07-26T05:39:41.665Z,73.97
2018-07-26T05:40:41.693Z,74.04
2018-07-26T05:41:41.719Z,74.23
2018-07-26T05:42:41.739Z,74.75
2018-07-26T05:43:41.782Z,73.88
2018-07-26T05:44:41.801Z,73.49
2018-07-26T05:45:41.850Z,73.24
2018-07-26T05:46:41.869Z,73.04
2018-07-26T05:47:41.892Z,73.33
2018-07-26T05:48:41.914Z,73.82
2018-07-26T05:49:41.940Z,73.43
2018-07-26T05:50:41.966Z,73.91
2018-07-26T05:51:42.005Z,73.91
2018-07-26T05:52:42.026Z,74.30
2018-07-26T05:53:42.051Z,73.91
2018-07-26T05:54:42.080Z,74.11
2018-07-26T05:55:42.104Z,74.11
2018-07-26T05:56:42.135Z,73.91
2018-07-26T05:57:42.176Z,74.49
2018-07-26T05:58:42.205Z,74.69
2018-07-26T05:59:42.215Z,74.69
2018-07-26T06:00:42.257Z,74.88
2018-07-26T06:01:42.281Z,74.79
2018-07-26T06:02:42.311Z,75.17
2018-07-26T06:03:42.338Z,75.65
2018-07-26T06:04:42.366Z,74.79
2018-07-26T06:05:42.387Z,74.79
2018-07-26T06:06:42.425Z,74.69
2018-07-26T06:07:42.463Z,75.17
2018-07-26T06:08:42.478Z,75.17
2018-07-26T06:09:42.572Z,75.07
2018-07-26T06:10:42.536Z,75.56
2018-07-26T06:11:42.568Z,75.40
2018-07-26T06:12:42.585Z,75.50
2018-07-26T06:13:42.620Z,74.73
2018-07-26T06:14:42.649Z,75.11
2018-07-26T06:15:42.678Z,74.82
2018-07-26T06:16:42.716Z,75.02
2018-07-26T06:17:42.745Z,74.63
2018-07-26T06:18:42.767Z,74.15
2018-07-26T06:19:42.788Z,74.34
2018-07-26T06:20:42.888Z,74.24
2018-07-26T06:21:42.864Z,73.85
2018-07-26T06:22:42.877Z,73.85
2018-07-26T06:23:42.916Z,73.75
2018-07-26T06:24:42.936Z,74.15
2018-07-26T06:25:42.964Z,74.24
2018-07-26T06:26:42.997Z,74.28
2018-07-26T06:27:43.105Z,73.99
2018-07-26T06:28:43.051Z,74.28
2018-07-26T06:29:43.078Z,74.57
2018-07-26T06:30:43.106Z,73.89
2018-07-26T06:31:43.140Z,74.28
2018-07-26T06:32:43.167Z,74.18
2018-07-26T06:33:43.239Z,73.60
2018-07-26T06:34:43.225Z,73.60
2018-07-26T06:35:43.255Z,73.60
2018-07-26T06:36:43.281Z,73.99
2018-07-26T06:37:43.319Z,73.69
2018-07-26T06:38:43.346Z,73.69
2018-07-26T06:39:43.365Z,73.73
2018-07-26T06:40:43.392Z,73.89
2018-07-26T06:41:43.420Z,74.18
2018-07-26T06:42:43.482Z,73.69
2018-07-26T06:43:43.483Z,72.83
2018-07-26T06:44:43.513Z,72.86
2018-07-26T06:45:43.546Z,72.86
2018-07-26T06:46:43.571Z,72.38
2018-07-26T06:47:43.599Z,72.96
2018-07-26T06:48:43.622Z,72.47
2018-07-26T06:49:43.664Z,72.77
2018-07-26T06:50:43.701Z,73.05
2018-07-26T06:51:43.714Z,72.96
2018-07-26T06:52:43.761Z,72.47
2018-07-26T06:53:43.781Z,72.47
2018-07-26T06:54:43.809Z,73.35
2018-07-26T06:55:43.837Z,72.47
2018-07-26T06:56:43.859Z,72.80
2018-07-26T06:57:43.893Z,72.22
2018-07-26T06:58:43.917Z,72.61
2018-07-26T06:59:43.946Z,71.83
2018-07-26T07:00:44.010Z,71.73
2018-07-26T07:01:44.010Z,71.93
2018-07-26T07:02:44.036Z,71.93
2018-07-26T07:03:44.061Z,71.54
2018-07-26T07:04:44.089Z,71.54
2018-07-26T07:05:44.145Z,70.86
2018-07-26T07:06:44.152Z,72.02
2018-07-26T07:07:44.184Z,71.25
2018-07-26T07:08:44.211Z,71.06
2018-07-26T07:09:44.253Z,70.61
2018-07-26T07:10:44.268Z,70.70
2018-07-26T07:11:44.301Z,70.31
2018-07-26T07:12:44.326Z,70.12
2018-07-26T07:13:44.357Z,69.93
2018-07-26T07:14:44.387Z,69.93
2018-07-26T07:15:44.436Z,70.03
2018-07-26T07:16:44.453Z,69.73
2018-07-26T07:17:44.500Z,70.06
2018-07-26T07:18:44.512Z,70.25
2018-07-26T07:19:44.541Z,69.67
2018-07-26T07:20:44.563Z,69.57
2018-07-26T07:21:44.589Z,69.54
2018-07-26T07:22:44.624Z,69.67
2018-07-26T07:23:44.646Z,69.48
2018-07-26T07:24:44.678Z,69.18
2018-07-26T07:25:44.712Z,69.28
2018-07-26T07:26:44.741Z,69.38
2018-07-26T07:27:44.775Z,69.57
2018-07-26T07:28:44.790Z,69.48
2018-07-26T07:29:44.826Z,69.76
2018-07-26T07:30:44.860Z,69.48
2018-07-26T07:31:44.888Z,69.18
2018-07-26T07:32:44.918Z,69.48
2018-07-26T07:33:44.948Z,69.57
2018-07-26T07:34:44.973Z,69.09
2018-07-26T07:35:45.020Z,69.09
2018-07-26T07:36:45.042Z,69.48
2018-07-26T07:37:45.063Z,68.89
2018-07-26T07:38:45.102Z,68.70
2018-07-26T07:39:45.137Z,69.09
2018-07-26T07:40:45.167Z,68.51
2018-07-26T07:41:45.233Z,68.12
2018-07-26T07:43:45.242Z,68.21
2018-07-26T07:44:45.285Z,68.51
2018-07-26T07:45:45.389Z,68.79
2018-07-26T07:46:45.358Z,68.35
2018-07-26T07:47:45.423Z,68.89
2018-07-26T07:48:45.393Z,68.79
2018-07-26T07:49:45.420Z,68.31
2018-07-26T07:50:45.453Z,68.44
2018-07-26T07:51:45.497Z,68.15
2018-07-26T07:52:45.528Z,68.15
2018-07-26T07:53:45.539Z,68.15
2018-07-26T07:54:45.570Z,68.15
2018-07-26T07:55:45.599Z,68.05
2018-07-26T07:56:45.625Z,67.57
2018-07-26T07:57:45.660Z,67.57
2018-07-26T07:58:45.690Z,66.99
2018-07-26T07:59:45.787Z,67.47
2018-07-26T08:00:45.755Z,67.08
2018-07-26T08:01:45.787Z,66.69
2018-07-26T08:02:45.822Z,66.50
2018-07-26T08:03:45.838Z,66.60
2018-07-26T08:04:45.876Z,66.50
2018-07-26T08:05:45.902Z,66.44
2018-07-26T08:06:45.970Z,67.02
2018-07-26T08:07:45.960Z,66.34
2018-07-26T08:08:45.983Z,65.85
2018-07-26T08:09:46.032Z,65.85
2018-07-26T08:10:46.048Z,66.27
2018-07-26T08:11:46.083Z,65.75
2018-07-26T08:12:46.234Z,65.56
2018-07-26T08:13:46.145Z,65.79
2018-07-26T08:14:46.176Z,65.37
2018-07-26T08:15:46.196Z,65.50
2018-07-26T08:16:46.230Z,65.30
2018-07-26T08:17:46.270Z,65.30
2018-07-26T08:18:46.283Z,64.81
2018-07-26T08:19:46.318Z,64.72
2018-07-26T08:20:46.351Z,65.30
2018-07-26T08:21:46.376Z,65.50
2018-07-26T08:22:46.420Z,64.43
2018-07-26T08:23:46.443Z,64.72
2018-07-26T08:24:46.485Z,64.72
2018-07-26T08:25:46.505Z,64.72
2018-07-26T08:27:46.567Z,64.53
2018-07-26T08:28:46.593Z,64.33
2018-07-26T08:29:46.622Z,64.62
2018-07-26T08:30:46.713Z,64.43
2018-07-26T08:31:46.684Z,64.53
2018-07-26T08:32:46.726Z,64.14
2018-07-26T08:33:46.754Z,64.43
2018-07-26T08:34:46.772Z,64.53
2018-07-26T08:35:46.804Z,64.62
2018-07-26T08:36:46.836Z,64.43
2018-07-26T08:37:46.862Z,64.72
2018-07-26T08:38:46.909Z,64.23
2018-07-26T08:39:46.926Z,63.68
2018-07-26T08:40:46.960Z,64.04
2018-07-26T08:41:46.986Z,63.78
2018-07-26T08:42:47.022Z,63.68
2018-07-26T08:44:47.074Z,63.68
2018-07-26T08:45:47.113Z,63.87
2018-07-26T08:46:47.148Z,63.59
2018-07-26T08:47:47.179Z,63.59
2018-07-26T08:48:47.202Z,64.07
2018-07-26T08:49:47.227Z,63.78
2018-07-26T08:50:47.262Z,63.49
2018-07-26T08:51:47.293Z,63.78
2018-07-26T08:52:47.326Z,63.68
2018-07-26T08:53:47.347Z,63.59
2018-07-26T08:54:47.380Z,63.68
2018-07-26T08:55:47.417Z,63.03
2018-07-26T08:56:47.468Z,62.90
2018-07-26T08:57:47.479Z,63.71
2018-07-26T08:58:47.511Z,63.10
2018-07-26T08:59:47.540Z,63.10
2018-07-26T09:00:47.561Z,63.00
2018-07-26T09:01:47.597Z,63.81
2018-07-26T09:02:47.661Z,63.16
2018-07-26T09:03:47.662Z,62.93
2018-07-26T09:04:47.690Z,62.09
2018-07-26T09:05:47.719Z,62.19
2018-07-26T09:06:47.746Z,61.70
2018-07-26T09:07:47.777Z,61.96
2018-07-26T09:08:47.811Z,62.45
2018-07-26T09:09:47.896Z,62.16
2018-07-26T09:10:47.891Z,62.45
2018-07-26T09:11:47.909Z,62.06
2018-07-26T09:12:47.931Z,62.06
2018-07-26T09:13:48.005Z,62.06
2018-07-26T09:14:48.006Z,61.96
2018-07-26T09:15:48.028Z,61.70
2018-07-26T09:16:48.060Z,62.26
2018-07-26T09:17:48.097Z,61.96
2018-07-26T09:18:48.119Z,62.38
2018-07-26T09:19:48.235Z,61.90
2018-07-26T09:20:48.188Z,61.51
2018-07-26T09:21:48.212Z,61.51
2018-07-26T09:22:48.247Z,61.51
2018-07-26T09:23:48.272Z,61.80
2018-07-26T09:24:48.311Z,61.90
2018-07-26T09:25:48.341Z,60.56
2018-07-26T09:26:48.366Z,59.69
2018-07-26T09:27:48.399Z,59.69
2018-07-26T09:28:48.492Z,60.17
2018-07-26T09:29:48.459Z,60.46
2018-07-26T09:30:48.499Z,59.59
2018-07-26T09:31:48.520Z,59.59
2018-07-26T09:32:48.570Z,59.69
2018-07-26T09:33:48.584Z,59.69
2018-07-26T09:34:48.613Z,59.88
2018-07-26T09:35:48.658Z,59.69
2018-07-26T09:36:48.676Z,59.98
2018-07-26T09:37:48.711Z,59.59
2018-07-26T09:38:48.743Z,57.93
2018-07-26T09:39:48.773Z,58.81
2018-07-26T09:40:48.804Z,58.61
2018-07-26T09:41:48.829Z,58.25
2018-07-26T09:42:48.893Z,58.45
2018-07-26T09:43:48.894Z,58.06
2018-07-26T09:44:48.928Z,58.15
2018-07-26T09:45:48.973Z,58.45
2018-07-26T09:46:48.988Z,58.25
2018-07-26T09:47:49.031Z,58.42
2018-07-26T09:48:49.062Z,58.84
2018-07-26T09:49:49.141Z,58.35
2018-07-26T09:50:49.115Z,57.57
2018-07-26T09:51:49.149Z,56.21
2018-07-26T09:52:49.199Z,55.91
2018-07-26T09:53:49.217Z,53.60
2018-07-26T09:54:49.262Z,53.50
2018-07-26T09:55:49.277Z,52.17
2018-07-26T09:56:49.314Z,52.34
2018-07-26T09:57:49.341Z,50.19
2018-07-26T09:58:49.373Z,50.48
2018-07-26T09:59:49.396Z,50.38
2018-07-26T10:00:49.432Z,48.29
2018-07-26T10:01:49.476Z,48.75
2018-07-26T10:02:49.493Z,49.34
2018-07-26T10:03:49.534Z,49.51
2018-07-26T10:04:49.552Z,50.38
2018-07-26T10:05:49.592Z,50.38
2018-07-26T10:06:49.655Z,49.83
2018-07-26T10:07:49.650Z,50.60
2018-07-26T10:08:49.680Z,50.48
2018-07-26T10:09:49.728Z,49.93
2018-07-26T10:10:49.748Z,48.36
2018-07-26T10:11:49.792Z,46.70
2018-07-26T10:12:49.807Z,46.90
2018-07-26T10:13:49.845Z,47.39
2018-07-26T10:14:49.876Z,47.22
2018-07-26T10:15:49.960Z,47.02
2018-07-26T10:16:49.933Z,46.70
2018-07-26T10:17:49.984Z,44.76
2018-07-26T10:18:49.995Z,45.75
2018-07-26T10:19:50.043Z,45.07
2018-07-26T10:20:50.071Z,43.92
2018-07-26T10:22:50.124Z,44.48
2018-07-26T10:23:50.162Z,44.68
2018-07-26T10:24:50.192Z,45.07
2018-07-26T10:25:50.229Z,45.07
2018-07-26T10:26:50.247Z,45.46
2018-07-26T10:27:50.313Z,45.56
2018-07-26T10:28:50.309Z,45.46
2018-07-26T10:29:50.340Z,44.90
2018-07-26T10:30:50.379Z,44.31
2018-07-26T10:31:50.432Z,44.80
2018-07-26T10:32:50.437Z,44.02
2018-07-26T10:33:50.478Z,43.63
2018-07-26T10:34:50.499Z,43.04
2018-07-26T10:35:50.535Z,43.90
2018-07-26T10:36:50.581Z,44.02
2018-07-26T10:37:50.597Z,43.63
2018-07-26T10:38:50.632Z,43.92
2018-07-26T10:39:50.673Z,43.73
2018-07-26T10:40:50.690Z,43.53
2018-07-26T10:41:50.731Z,43.43
2018-07-26T10:42:50.759Z,43.92
2018-07-26T10:43:50.797Z,44.60
2018-07-26T10:44:50.831Z,44.02
2018-07-26T10:45:50.852Z,43.80
2018-07-26T10:46:50.904Z,44.31
2018-07-26T10:47:50.919Z,43.82
2018-07-26T10:48:50.950Z,44.12
2018-07-26T10:49:51.049Z,43.33
2018-07-26T10:50:51.006Z,43.07
2018-07-26T10:51:51.055Z,43.33
2018-07-26T10:52:51.075Z,42.68
2018-07-26T10:53:51.113Z,43.07
2018-07-26T10:54:51.181Z,43.16
2018-07-26T10:55:51.175Z,42.48
2018-07-26T10:56:51.204Z,41.67
2018-07-26T10:57:51.241Z,41.60
2018-07-26T10:58:51.268Z,41.80
2018-07-26T10:59:51.306Z,42.29
2018-07-26T11:00:51.336Z,40.55
2018-07-26T11:01:51.366Z,41.52
2018-07-26T11:02:51.414Z,40.74
2018-07-26T11:03:51.480Z,41.42
2018-07-26T11:04:51.469Z,40.94
2018-07-26T11:05:51.496Z,41.70
2018-07-26T11:06:51.537Z,41.91
2018-07-26T11:07:51.578Z,41.82
2018-07-26T11:08:51.594Z,41.52
2018-07-26T11:09:51.626Z,41.91
2018-07-26T11:10:51.677Z,40.84
2018-07-26T11:11:51.697Z,41.03
2018-07-26T11:12:51.728Z,41.11
2018-07-26T11:13:51.754Z,40.74
2018-07-26T11:14:51.785Z,41.33
2018-07-26T11:15:51.816Z,41.33
2018-07-26T11:16:51.859Z,40.66
2018-07-26T11:18:52.005Z,40.74
2018-07-26T11:19:51.948Z,40.55
2018-07-26T11:20:51.988Z,41.62
2018-07-26T11:21:52.017Z,40.86
2018-07-26T11:22:52.043Z,40.84
2018-07-26T11:23:52.099Z,39.98
2018-07-26T11:24:52.122Z,40.08
2018-07-26T11:25:52.147Z,40.27
2018-07-26T11:26:52.178Z,40.66
2018-07-26T11:27:52.209Z,41.05
2018-07-26T11:28:52.241Z,40.78
2018-07-26T11:30:52.314Z,40.66
2018-07-26T11:32:52.397Z,40.17
2018-07-26T11:33:52.407Z,40.27
2018-07-26T11:34:52.439Z,40.09
2018-07-26T11:35:52.474Z,39.90
2018-07-26T11:36:52.514Z,40.00
2018-07-26T11:37:52.540Z,39.82
2018-07-26T11:38:52.566Z,39.43
2018-07-26T11:39:52.598Z,39.53
2018-07-26T11:40:52.638Z,39.35
2018-07-26T11:41:52.678Z,39.45
2018-07-26T11:42:52.723Z,39.25
2018-07-26T11:43:52.759Z,38.59
2018-07-26T11:44:52.775Z,36.92
2018-07-26T11:45:52.805Z,37.12
2018-07-26T11:46:52.833Z,37.13
2018-07-26T11:47:52.868Z,37.13
2018-07-26T11:48:52.896Z,36.96
2018-07-26T11:49:52.933Z,36.88
2018-07-26T11:51:53.001Z,36.09
2018-07-26T11:52:53.096Z,35.80
2018-07-26T11:53:53.068Z,35.50
2018-07-26T11:54:53.100Z,35.10
2018-07-26T11:55:53.131Z,35.11
2018-07-26T11:56:53.174Z,35.21
2018-07-26T11:57:53.204Z,35.31
2018-07-26T11:58:53.234Z,35.13
2018-07-26T11:59:53.272Z,35.60
2018-07-26T12:00:53.303Z,35.62
2018-07-26T12:01:53.368Z,34.74
2018-07-26T12:02:53.371Z,34.44
2018-07-26T12:03:53.400Z,34.44
2018-07-26T12:04:53.423Z,35.31
2018-07-26T12:05:53.468Z,35.11
2018-07-26T12:06:53.504Z,35.02
2018-07-26T12:07:53.541Z,35.31
2018-07-26T12:08:53.561Z,35.33
2018-07-26T12:09:53.603Z,34.72
2018-07-26T12:10:53.644Z,34.54
2018-07-26T12:11:53.675Z,34.54
2018-07-26T12:12:53.717Z,33.75
2018-07-26T12:13:53.740Z,34.81
2018-07-26T12:14:53.771Z,34.74
2018-07-26T12:16:53.866Z,35.21
2018-07-26T12:17:53.875Z,35.60
2018-07-26T12:18:53.907Z,35.60
2018-07-26T12:20:53.975Z,35.60
2018-07-26T12:21:54.014Z,36.08
2018-07-26T12:22:54.043Z,36.08
2018-07-26T12:23:54.071Z,36.18
2018-07-26T12:24:54.107Z,36.66
2018-07-26T12:25:54.149Z,36.35
2018-07-26T12:26:54.257Z,36.94
2018-07-26T12:27:54.222Z,37.63
2018-07-26T12:28:54.253Z,37.35
2018-07-26T12:29:54.282Z,35.68
2018-07-26T12:30:54.402Z,35.78
2018-07-26T12:31:54.359Z,35.88
2018-07-26T12:32:54.393Z,35.88
2018-07-26T12:33:54.435Z,35.50
2018-07-26T12:34:54.455Z,35.39
2018-07-26T12:35:54.561Z,35.31
2018-07-26T12:36:54.520Z,35.39
2018-07-26T12:37:54.558Z,35.50
2018-07-26T12:38:54.589Z,35.80
2018-07-26T12:39:54.627Z,35.68
2018-07-26T12:40:54.654Z,35.78
2018-07-26T12:41:54.702Z,35.97
2018-07-26T12:42:54.725Z,36.08
2018-07-26T12:43:54.765Z,35.97
2018-07-26T12:44:54.802Z,36.96
2018-07-26T12:45:54.846Z,36.96
2018-07-26T12:47:55.002Z,36.86
2018-07-26T12:48:54.932Z,37.33
2018-07-26T12:49:54.969Z,37.04
2018-07-26T12:50:55.006Z,37.31
2018-07-26T12:51:55.034Z,37.43
2018-07-26T12:52:55.070Z,37.23
2018-07-26T12:53:55.108Z,36.84
2018-07-26T12:54:55.179Z,37.33
2018-07-26T12:55:55.178Z,37.73
2018-07-26T12:56:55.216Z,36.76
2018-07-26T12:57:55.241Z,35.97
2018-07-26T12:58:55.286Z,37.04
2018-07-26T12:59:55.315Z,36.84
2018-07-26T13:00:55.375Z,36.45
2018-07-26T13:01:55.394Z,36.33
2018-07-26T13:02:55.416Z,36.82
2018-07-26T13:03:55.454Z,36.82
2018-07-26T13:04:55.479Z,37.23
2018-07-26T13:05:55.532Z,35.78